LiveATC.Net - Listen to live air traffic control over the Internet!


ICAO: 5GE1  IATA: 5GE1   Airport: Peachtree Landings Airport
City: Fort Valley   State/Province: Georgia
Country: United States   Continent: North America
KPXE METAR Weather: KPXE 170435Z AUTO 00000KT 7SM CLR 24/23 A2993 RMK AO2 T02350226
5GE1 ADS-B Flight Tracking (ADSBExchange)
5GE1 Flight Activity (FlightAware)
5GE1 Airport Info   (iFlightPlanner)
5GE1 VFR Sectional Chart   (iFlightPlanner) 
5GE1 IFR Low Altitude Chart   (iFlightPlanner) 
5GE1 IFR High Altitude Chart   (iFlightPlanner) 

5A2/5GE1 CTAF
Feed Status: UP   Listeners: 0
Listen in your browser - HTML5 player (in browser, HTML5)
Click here to listen with your own player (launches your MP3 player)
Archive Access: 5A2/5GE1 CTAF
FacilityFrequency
Warner Robins/Peachtree Landings CTAF122.900

NOTICE

Unauthorized use prohibited. See LiveATC.net Terms of Service


Airport/ARTCC Code
Frequency Search
(e.g., 124.400, 128.75)
Site-wide search
 


Browse Feeds
Top 50 Feeds
HF Oceanic Feeds
Coverage Map
Bad Weather Areas

LiveATC FAQ
Offer LiveATC feed
Contact LiveATC.net
Press Inquiries

LiveATC on iPhone
LiveATC on Android

LiveATC Mobile
(Mobile browser)

ATC Audio Archives
Interesting Recordings

LiveATC Forums


Home Page
About LiveATC.net


Terms of Use
Privacy Policy

AIRMETs/SIGMETs

FAA Airport Status
NAS Status
Arrival Demand


Server Software By:
Icecast.org
Liquidsoap